createdAt,value
2024-05-09T00:06:49.776Z,4.60
2024-05-09T00:36:52.030Z,4.90
2024-05-09T01:06:54.490Z,4.97
2024-05-09T01:36:56.885Z,5.70
2024-05-09T02:06:59.285Z,6.05
2024-05-09T02:37:01.761Z,4.69
2024-05-09T03:07:03.937Z,6.03
2024-05-09T03:37:06.072Z,5.08
2024-05-09T04:07:07.782Z,6.33
2024-05-09T04:37:08.775Z,5.82
2024-05-09T05:07:10.236Z,4.15
2024-05-09T05:37:11.530Z,4.19
2024-05-09T06:07:12.698Z,4.04
2024-05-09T06:37:14.540Z,2.70
2024-05-09T07:07:16.363Z,2.72
2024-05-09T07:37:17.487Z,3.33
2024-05-09T08:32:46.398Z,2.87
2024-05-09T09:02:48.159Z,2.72
2024-05-09T09:32:49.754Z,2.61
2024-05-09T10:02:52.277Z,2.69
2024-05-09T10:32:55.391Z,2.58
2024-05-09T11:02:57.317Z,2.70
2024-05-09T11:32:59.416Z,2.25
2024-05-09T12:09:24.480Z,1.91
2024-05-09T12:39:27.589Z,1.59
2024-05-09T13:09:29.181Z,1.62
2024-05-09T13:39:30.389Z,1.81
2024-05-09T14:09:32.680Z,1.64
2024-05-09T14:39:34.678Z,1.71
2024-05-09T15:09:36.932Z,2.39
2024-05-09T15:39:38.849Z,1.64
2024-05-09T16:09:40.666Z,1.78
2024-05-09T16:39:42.458Z,2.12
2024-05-09T17:09:44.533Z,4.30
2024-05-09T17:39:46.462Z,2.47
2024-05-09T18:09:48.408Z,2.18
2024-05-09T18:39:52.683Z,2.47
2024-05-09T19:09:53.938Z,2.88
2024-05-09T19:39:55.476Z,5.85
2024-05-09T20:09:57.072Z,5.00
2024-05-09T20:39:58.956Z,4.33
2024-05-09T21:18:45.285Z,5.60
2024-05-09T21:48:46.202Z,3.82
2024-05-09T22:18:46.914Z,3.40
2024-05-09T22:57:48.365Z,3.69
2024-05-09T23:27:49.142Z,3.73
2024-05-09T23:57:49.615Z,3.86
